sensor_id;sensor_type;location;lat;lon;timestamp;pressure;altitude;pressure_sealevel;temperature;humidity
71621;BME280;59471;42.254;23.102;2024-02-15T00:01:30;96294.88;;;3.70;72.20
71621;BME280;59471;42.254;23.102;2024-02-15T00:03:56;96294.31;;;3.67;72.41
71621;BME280;59471;42.254;23.102;2024-02-15T00:06:22;96287.38;;;3.56;71.88
71621;BME280;59471;42.254;23.102;2024-02-15T00:08:48;96298.09;;;3.63;72.48
71621;BME280;59471;42.254;23.102;2024-02-15T00:11:15;96304.75;;;3.77;71.31
71621;BME280;59471;42.254;23.102;2024-02-15T00:13:40;96309.13;;;3.76;70.78
71621;BME280;59471;42.254;23.102;2024-02-15T00:16:06;96306.16;;;3.81;69.29
71621;BME280;59471;42.254;23.102;2024-02-15T00:18:32;96304.19;;;3.73;70.27
71621;BME280;59471;42.254;23.102;2024-02-15T00:20:57;96305.38;;;3.69;70.80
71621;BME280;59471;42.254;23.102;2024-02-15T00:23:23;96307.72;;;3.72;71.55
71621;BME280;59471;42.254;23.102;2024-02-15T00:25:49;96302.91;;;3.67;71.43
71621;BME280;59471;42.254;23.102;2024-02-15T00:28:15;96302.28;;;3.75;70.92
71621;BME280;59471;42.254;23.102;2024-02-15T00:30:40;96301.53;;;3.84;70.16
71621;BME280;59471;42.254;23.102;2024-02-15T00:33:06;96306.16;;;3.81;70.60
71621;BME280;59471;42.254;23.102;2024-02-15T00:35:32;96301.84;;;3.70;71.84
71621;BME280;59471;42.254;23.102;2024-02-15T00:37:58;96303.03;;;3.66;70.95
71621;BME280;59471;42.254;23.102;2024-02-15T00:40:23;96300.72;;;3.52;72.28
71621;BME280;59471;42.254;23.102;2024-02-15T00:42:49;96302.16;;;3.44;72.86
71621;BME280;59471;42.254;23.102;2024-02-15T00:45:14;96305.81;;;3.42;72.19
71621;BME280;59471;42.254;23.102;2024-02-15T00:47:40;96315.69;;;3.48;71.32
71621;BME280;59471;42.254;23.102;2024-02-15T00:50:10;96313.19;;;3.46;71.31
71621;BME280;59471;42.254;23.102;2024-02-15T00:52:36;96303.31;;;3.40;73.11
71621;BME280;59471;42.254;23.102;2024-02-15T00:55:01;96306.16;;;3.48;71.94
71621;BME280;59471;42.254;23.102;2024-02-15T00:57:27;96309.63;;;3.59;72.01
71621;BME280;59471;42.254;23.102;2024-02-15T00:59:52;96297.41;;;3.49;71.71
71621;BME280;59471;42.254;23.102;2024-02-15T01:02:18;96301.91;;;3.47;71.27
71621;BME280;59471;42.254;23.102;2024-02-15T01:04:43;96299.09;;;3.51;72.51
71621;BME280;59471;42.254;23.102;2024-02-15T01:07:11;96296.28;;;3.42;71.26
71621;BME280;59471;42.254;23.102;2024-02-15T01:09:36;96295.47;;;3.42;71.98
71621;BME280;59471;42.254;23.102;2024-02-15T01:12:02;96301.44;;;3.54;71.84
71621;BME280;59471;42.254;23.102;2024-02-15T01:14:29;96299.56;;;3.44;71.24
71621;BME280;59471;42.254;23.102;2024-02-15T01:16:56;96301.22;;;3.45;72.03
71621;BME280;59471;42.254;23.102;2024-02-15T01:19:22;96302.81;;;3.58;71.98
71621;BME280;59471;42.254;23.102;2024-02-15T01:21:47;96292.50;;;3.46;72.15
71621;BME280;59471;42.254;23.102;2024-02-15T01:24:13;96313.19;;;3.46;72.58
71621;BME280;59471;42.254;23.102;2024-02-15T01:26:38;96293.44;;;3.45;73.75
71621;BME280;59471;42.254;23.102;2024-02-15T01:29:04;96302.50;;;3.40;72.30
71621;BME280;59471;42.254;23.102;2024-02-15T01:31:30;96295.13;;;3.35;73.55
71621;BME280;59471;42.254;23.102;2024-02-15T01:33:55;96308.72;;;3.48;72.48
71621;BME280;59471;42.254;23.102;2024-02-15T01:36:21;96302.84;;;3.46;71.68
71621;BME280;59471;42.254;23.102;2024-02-15T01:38:47;96308.03;;;3.46;71.57
71621;BME280;59471;42.254;23.102;2024-02-15T01:41:12;96301.22;;;3.45;71.95
71621;BME280;59471;42.254;23.102;2024-02-15T01:43:38;96305.91;;;3.52;71.53
71621;BME280;59471;42.254;23.102;2024-02-15T01:46:13;96303.94;;;3.44;71.80
71621;BME280;59471;42.254;23.102;2024-02-15T01:48:40;96305.00;;;3.41;72.51
71621;BME280;59471;42.254;23.102;2024-02-15T01:51:10;96301.44;;;3.42;72.01
71621;BME280;59471;42.254;23.102;2024-02-15T01:53:37;96310.03;;;3.43;71.65
71621;BME280;59471;42.254;23.102;2024-02-15T01:56:04;96308.03;;;3.46;71.48
71621;BME280;59471;42.254;23.102;2024-02-15T01:58:30;96323.84;;;3.32;71.83
71621;BME280;59471;42.254;23.102;2024-02-15T02:00:57;96317.47;;;3.36;72.34
71621;BME280;59471;42.254;23.102;2024-02-15T02:03:23;96313.09;;;3.37;72.81
71621;BME280;59471;42.254;23.102;2024-02-15T02:05:48;96311.81;;;3.42;73.49
71621;BME280;59471;42.254;23.102;2024-02-15T02:08:14;96324.28;;;3.37;73.21
71621;BME280;59471;42.254;23.102;2024-02-15T02:10:40;96316.00;;;3.55;72.86
71621;BME280;59471;42.254;23.102;2024-02-15T02:13:05;96319.00;;;3.39;71.69
71621;BME280;59471;42.254;23.102;2024-02-15T02:15:32;96315.34;;;3.41;72.10
71621;BME280;59471;42.254;23.102;2024-02-15T02:17:58;96321.34;;;3.42;73.42
71621;BME280;59471;42.254;23.102;2024-02-15T02:20:25;96321.97;;;3.23;74.37
71621;BME280;59471;42.254;23.102;2024-02-15T02:22:53;96326.91;;;3.26;76.67
71621;BME280;59471;42.254;23.102;2024-02-15T02:25:24;96337.34;;;3.47;74.64
71621;BME280;59471;42.254;23.102;2024-02-15T02:27:53;96340.56;;;3.28;74.34
71621;BME280;59471;42.254;23.102;2024-02-15T02:30:20;96335.00;;;3.33;75.22
71621;BME280;59471;42.254;23.102;2024-02-15T02:32:48;96338.53;;;3.43;74.85
71621;BME280;59471;42.254;23.102;2024-02-15T02:35:14;96332.81;;;3.28;75.89
71621;BME280;59471;42.254;23.102;2024-02-15T02:37:41;96334.94;;;3.00;75.92
71621;BME280;59471;42.254;23.102;2024-02-15T02:40:08;96334.47;;;2.73;76.61
71621;BME280;59471;42.254;23.102;2024-02-15T02:42:55;96338.34;;;2.90;76.51
71621;BME280;59471;42.254;23.102;2024-02-15T02:45:22;96335.84;;;2.99;76.98
71621;BME280;59471;42.254;23.102;2024-02-15T02:47:51;96340.31;;;3.09;77.36
71621;BME280;59471;42.254;23.102;2024-02-15T02:50:17;96339.38;;;3.21;76.98
71621;BME280;59471;42.254;23.102;2024-02-15T02:52:44;96331.72;;;3.31;76.75
71621;BME280;59471;42.254;23.102;2024-02-15T02:55:10;96332.44;;;3.21;75.66
71621;BME280;59471;42.254;23.102;2024-02-15T02:57:37;96335.16;;;3.09;76.32
71621;BME280;59471;42.254;23.102;2024-02-15T03:00:07;96332.13;;;3.04;77.25
71621;BME280;59471;42.254;23.102;2024-02-15T03:02:35;96333.72;;;3.38;76.57
71621;BME280;59471;42.254;23.102;2024-02-15T03:05:03;96331.56;;;3.43;75.84
71621;BME280;59471;42.254;23.102;2024-02-15T03:07:32;96329.13;;;3.31;75.36
71621;BME280;59471;42.254;23.102;2024-02-15T03:09:58;96333.72;;;3.27;75.59
71621;BME280;59471;42.254;23.102;2024-02-15T03:12:23;96342.56;;;3.13;76.65
71621;BME280;59471;42.254;23.102;2024-02-15T03:14:49;96340.56;;;3.17;76.41
71621;BME280;59471;42.254;23.102;2024-02-15T03:17:15;96339.97;;;3.13;76.69
71621;BME280;59471;42.254;23.102;2024-02-15T03:19:41;96345.03;;;2.92;76.46
71621;BME280;59471;42.254;23.102;2024-02-15T03:22:06;96332.34;;;3.00;76.10
71621;BME280;59471;42.254;23.102;2024-02-15T03:24:32;96333.75;;;2.82;76.81
71621;BME280;59471;42.254;23.102;2024-02-15T03:26:57;96347.16;;;3.10;76.44
71621;BME280;59471;42.254;23.102;2024-02-15T03:29:23;96336.34;;;3.16;76.94
71621;BME280;59471;42.254;23.102;2024-02-15T03:31:50;96341.47;;;3.38;77.22
71621;BME280;59471;42.254;23.102;2024-02-15T03:34:18;96339.16;;;3.01;75.79
71621;BME280;59471;42.254;23.102;2024-02-15T03:36:46;96339.88;;;2.92;77.53
71621;BME280;59471;42.254;23.102;2024-02-15T03:39:17;96335.16;;;3.20;75.65
71621;BME280;59471;42.254;23.102;2024-02-15T03:41:42;96337.75;;;3.20;74.29
71621;BME280;59471;42.254;23.102;2024-02-15T03:44:11;96323.75;;;3.11;75.75
71621;BME280;59471;42.254;23.102;2024-02-15T03:46:37;96328.78;;;3.24;75.79
71621;BME280;59471;42.254;23.102;2024-02-15T03:49:03;96331.13;;;3.38;76.08
71621;BME280;59471;42.254;23.102;2024-02-15T03:51:28;96322.44;;;3.17;76.78
71621;BME280;59471;42.254;23.102;2024-02-15T03:53:54;96328.56;;;3.16;75.69
71621;BME280;59471;42.254;23.102;2024-02-15T03:56:20;96332.75;;;3.39;75.56
71621;BME280;59471;42.254;23.102;2024-02-15T03:58:48;96330.16;;;3.51;75.23
71621;BME280;59471;42.254;23.102;2024-02-15T04:01:16;96334.63;;;3.48;74.78
71621;BME280;59471;42.254;23.102;2024-02-15T04:03:41;96334.63;;;3.48;74.52
71621;BME280;59471;42.254;23.102;2024-02-15T04:06:07;96327.88;;;2.91;74.88
71621;BME280;59471;42.254;23.102;2024-02-15T04:08:33;96337.97;;;3.06;75.79
71621;BME280;59471;42.254;23.102;2024-02-15T04:10:59;96339.88;;;3.04;76.31
71621;BME280;59471;42.254;23.102;2024-02-15T04:13:25;96333.84;;;3.14;73.83
71621;BME280;59471;42.254;23.102;2024-02-15T04:15:50;96336.56;;;3.13;75.26
71621;BME280;59471;42.254;23.102;2024-02-15T04:18:18;96339.84;;;3.26;75.04
71621;BME280;59471;42.254;23.102;2024-02-15T04:20:44;96335.88;;;2.77;75.16
71621;BME280;59471;42.254;23.102;2024-02-15T04:23:12;96345.84;;;2.70;76.64
71621;BME280;59471;42.254;23.102;2024-02-15T04:25:38;96345.03;;;2.92;77.07
71621;BME280;59471;42.254;23.102;2024-02-15T04:28:04;96346.94;;;3.13;77.33
71621;BME280;59471;42.254;23.102;2024-02-15T04:30:30;96351.63;;;3.19;77.71
71621;BME280;59471;42.254;23.102;2024-02-15T04:32:56;96341.97;;;3.21;77.62
71621;BME280;59471;42.254;23.102;2024-02-15T04:35:22;96345.97;;;3.02;76.64
71621;BME280;59471;42.254;23.102;2024-02-15T04:37:48;96346.69;;;2.71;76.55
71621;BME280;59471;42.254;23.102;2024-02-15T04:40:14;96340.09;;;2.55;77.72
71621;BME280;59471;42.254;23.102;2024-02-15T04:42:40;96344.31;;;2.57;78.06
71621;BME280;59471;42.254;23.102;2024-02-15T04:45:09;96349.97;;;2.73;78.40
71621;BME280;59471;42.254;23.102;2024-02-15T04:47:38;96345.03;;;2.92;78.39
71621;BME280;59471;42.254;23.102;2024-02-15T04:50:06;96353.28;;;2.86;78.87
71621;BME280;59471;42.254;23.102;2024-02-15T04:52:32;96352.78;;;3.15;77.87
71621;BME280;59471;42.254;23.102;2024-02-15T04:54:58;96361.03;;;3.20;78.04
71621;BME280;59471;42.254;23.102;2024-02-15T04:57:27;96364.09;;;3.14;77.59
71621;BME280;59471;42.254;23.102;2024-02-15T04:59:55;96363.16;;;3.04;77.06
71621;BME280;59471;42.254;23.102;2024-02-15T05:02:21;96370.91;;;2.92;77.88
71621;BME280;59471;42.254;23.102;2024-02-15T05:04:50;96369.97;;;2.82;77.89
71621;BME280;59471;42.254;23.102;2024-02-15T05:07:20;96370.81;;;2.36;78.11
71621;BME280;59471;42.254;23.102;2024-02-15T05:09:48;96364.88;;;2.47;78.48
71621;BME280;59471;42.254;23.102;2024-02-15T05:12:24;96369.38;;;2.78;78.96
71621;BME280;59471;42.254;23.102;2024-02-15T05:14:50;96375.13;;;2.71;78.65
71621;BME280;59471;42.254;23.102;2024-02-15T05:17:16;96377.16;;;3.01;78.51
71621;BME280;59471;42.254;23.102;2024-02-15T05:19:42;96380.69;;;3.00;75.67
71621;BME280;59471;42.254;23.102;2024-02-15T05:22:07;96388.81;;;3.07;75.36
71621;BME280;59471;42.254;23.102;2024-02-15T05:24:33;96387.38;;;2.80;75.88
71621;BME280;59471;42.254;23.102;2024-02-15T05:26:59;96382.19;;;3.02;75.07
71621;BME280;59471;42.254;23.102;2024-02-15T05:29:24;96373.50;;;2.81;74.49
71621;BME280;59471;42.254;23.102;2024-02-15T05:31:50;96396.56;;;2.95;74.97
71621;BME280;59471;42.254;23.102;2024-02-15T05:34:17;96387.13;;;3.06;75.61
71621;BME280;59471;42.254;23.102;2024-02-15T05:36:42;96399.84;;;3.09;75.66
71621;BME280;59471;42.254;23.102;2024-02-15T05:39:08;96388.91;;;2.94;76.28
71621;BME280;59471;42.254;23.102;2024-02-15T05:41:36;96400.69;;;2.98;74.36
71621;BME280;59471;42.254;23.102;2024-02-15T05:44:02;96402.78;;;3.04;75.28
71621;BME280;59471;42.254;23.102;2024-02-15T05:46:33;96407.94;;;2.93;73.63
71621;BME280;59471;42.254;23.102;2024-02-15T05:49:02;96403.59;;;2.82;75.38
71621;BME280;59471;42.254;23.102;2024-02-15T05:51:29;96401.94;;;2.70;74.78
71621;BME280;59471;42.254;23.102;2024-02-15T05:53:56;96409.72;;;2.92;73.81
71621;BME280;59471;42.254;23.102;2024-02-15T05:56:24;96406.66;;;2.98;74.48
71621;BME280;59471;42.254;23.102;2024-02-15T05:58:52;96405.59;;;2.90;74.82
71621;BME280;59471;42.254;23.102;2024-02-15T06:01:17;96417.00;;;2.76;73.65
71621;BME280;59471;42.254;23.102;2024-02-15T06:03:43;96417.72;;;2.89;75.78
71621;BME280;59471;42.254;23.102;2024-02-15T06:06:10;96430.66;;;3.12;74.42
71621;BME280;59471;42.254;23.102;2024-02-15T06:08:37;96431.59;;;2.99;73.16
71621;BME280;59471;42.254;23.102;2024-02-15T06:11:04;96424.09;;;2.96;73.15
71621;BME280;59471;42.254;23.102;2024-02-15T06:13:31;96441.47;;;3.06;72.48
71621;BME280;59471;42.254;23.102;2024-02-15T06:15:57;96442.16;;;2.85;73.00
71621;BME280;59471;42.254;23.102;2024-02-15T06:18:27;96439.47;;;2.98;72.93
71621;BME280;59471;42.254;23.102;2024-02-15T06:20:55;96449.13;;;2.96;73.46
71621;BME280;59471;42.254;23.102;2024-02-15T06:23:27;96446.44;;;2.97;73.07
71621;BME280;59471;42.254;23.102;2024-02-15T06:25:54;96446.91;;;3.14;72.18
71621;BME280;59471;42.254;23.102;2024-02-15T06:28:26;96449.25;;;3.06;72.65
71621;BME280;59471;42.254;23.102;2024-02-15T06:31:11;96445.59;;;2.97;72.41
71621;BME280;59471;42.254;23.102;2024-02-15T06:33:56;96451.50;;;3.10;71.33
71621;BME280;59471;42.254;23.102;2024-02-15T06:36:46;96453.72;;;3.15;70.70
71621;BME280;59471;42.254;23.102;2024-02-15T06:39:32;96448.88;;;2.99;72.89
71621;BME280;59471;42.254;23.102;2024-02-15T06:42:06;96446.44;;;3.09;73.17
71621;BME280;59471;42.254;23.102;2024-02-15T06:44:37;96452.44;;;3.20;71.93
71621;BME280;59471;42.254;23.102;2024-02-15T06:47:05;96463.63;;;3.21;71.33
71621;BME280;59471;42.254;23.102;2024-02-15T06:49:32;96459.84;;;3.14;71.26
71621;BME280;59471;42.254;23.102;2024-02-15T06:51:58;96458.44;;;3.21;71.56
71621;BME280;59471;42.254;23.102;2024-02-15T06:54:27;96461.38;;;3.28;71.08
71621;BME280;59471;42.254;23.102;2024-02-15T06:56:52;96459.88;;;3.25;71.88
71621;BME280;59471;42.254;23.102;2024-02-15T06:59:20;96458.31;;;3.34;71.32
71621;BME280;59471;42.254;23.102;2024-02-15T07:01:50;96460.78;;;3.46;70.70
71621;BME280;59471;42.254;23.102;2024-02-15T07:04:20;96458.69;;;3.40;71.88
71621;BME280;59471;42.254;23.102;2024-02-15T07:06:46;96460.00;;;3.35;70.70
71621;BME280;59471;42.254;23.102;2024-02-15T07:09:14;96468.56;;;3.46;71.20
71621;BME280;59471;42.254;23.102;2024-02-15T07:11:44;96466.34;;;3.42;70.55
71621;BME280;59471;42.254;23.102;2024-02-15T07:14:12;96461.28;;;3.29;69.63
71621;BME280;59471;42.254;23.102;2024-02-15T07:16:38;96468.69;;;3.34;70.95
71621;BME280;59471;42.254;23.102;2024-02-15T07:19:04;96464.34;;;3.45;70.92
71621;BME280;59471;42.254;23.102;2024-02-15T07:21:29;96474.00;;;3.66;69.09
71621;BME280;59471;42.254;23.102;2024-02-15T07:23:57;96469.63;;;3.66;69.22
71621;BME280;59471;42.254;23.102;2024-02-15T07:26:25;96466.66;;;3.71;70.09
71621;BME280;59471;42.254;23.102;2024-02-15T07:28:52;96477.47;;;3.87;68.92
71621;BME280;59471;42.254;23.102;2024-02-15T07:31:22;96467.13;;;3.87;69.75
71621;BME280;59471;42.254;23.102;2024-02-15T07:33:50;96458.91;;;3.71;68.82
71621;BME280;59471;42.254;23.102;2024-02-15T07:36:20;96451.50;;;3.55;69.51
71621;BME280;59471;42.254;23.102;2024-02-15T07:38:53;96453.25;;;3.43;68.32
71621;BME280;59471;42.254;23.102;2024-02-15T07:41:22;96449.03;;;3.54;69.24
71621;BME280;59471;42.254;23.102;2024-02-15T07:43:48;96443.16;;;3.63;69.55
71621;BME280;59471;42.254;23.102;2024-02-15T07:46:15;96444.31;;;3.70;69.41
71621;BME280;59471;42.254;23.102;2024-02-15T07:48:42;96453.28;;;3.66;68.72
71621;BME280;59471;42.254;23.102;2024-02-15T07:51:12;96442.78;;;3.79;69.11
71621;BME280;59471;42.254;23.102;2024-02-15T07:53:42;96445.69;;;3.85;68.08
71621;BME280;59471;42.254;23.102;2024-02-15T07:56:09;96437.25;;;3.72;68.70
71621;BME280;59471;42.254;23.102;2024-02-15T07:58:42;96434.13;;;3.89;68.58
71621;BME280;59471;42.254;23.102;2024-02-15T08:01:14;96432.03;;;3.94;68.66
71621;BME280;59471;42.254;23.102;2024-02-15T08:03:41;96429.44;;;3.94;67.84
71621;BME280;59471;42.254;23.102;2024-02-15T08:06:11;96431.88;;;4.07;68.22
71621;BME280;59471;42.254;23.102;2024-02-15T08:11:53;96421.81;;;4.14;67.89
71621;BME280;59471;42.254;23.102;2024-02-15T08:14:21;96433.50;;;4.40;67.82
71621;BME280;59471;42.254;23.102;2024-02-15T08:16:46;96420.78;;;4.37;67.76
71621;BME280;59471;42.254;23.102;2024-02-15T08:19:12;96425.53;;;4.32;68.08
71621;BME280;59471;42.254;23.102;2024-02-15T08:21:37;96421.94;;;4.45;67.65
71621;BME280;59471;42.254;23.102;2024-02-15T08:24:04;96420.09;;;4.56;67.76
71621;BME280;59471;42.254;23.102;2024-02-15T08:26:36;96420.09;;;4.77;66.65
71621;BME280;59471;42.254;23.102;2024-02-15T08:29:03;96422.19;;;4.83;67.19
71621;BME280;59471;42.254;23.102;2024-02-15T08:31:29;96427.06;;;4.56;67.23
71621;BME280;59471;42.254;23.102;2024-02-15T08:33:59;96428.94;;;4.54;66.83
71621;BME280;59471;42.254;23.102;2024-02-15T08:36:26;96419.47;;;4.64;66.79
71621;BME280;59471;42.254;23.102;2024-02-15T08:38:52;96424.69;;;4.64;65.75
71621;BME280;59471;42.254;23.102;2024-02-15T08:41:17;96416.06;;;4.84;66.80
71621;BME280;59471;42.254;23.102;2024-02-15T08:43:44;96416.16;;;5.04;66.28
71621;BME280;59471;42.254;23.102;2024-02-15T08:46:11;96418.47;;;5.28;66.69
71621;BME280;59471;42.254;23.102;2024-02-15T08:48:37;96411.84;;;5.14;65.03
71621;BME280;59471;42.254;23.102;2024-02-15T08:51:03;96411.00;;;5.14;65.56
71621;BME280;59471;42.254;23.102;2024-02-15T08:53:31;96415.31;;;5.24;64.47
71621;BME280;59471;42.254;23.102;2024-02-15T08:55:57;96410.66;;;5.28;64.69
71621;BME280;59471;42.254;23.102;2024-02-15T08:58:23;96401.22;;;5.17;64.49
71621;BME280;59471;42.254;23.102;2024-02-15T09:00:48;96403.63;;;5.40;65.65
71621;BME280;59471;42.254;23.102;2024-02-15T09:03:14;96399.44;;;5.58;65.10
71621;BME280;59471;42.254;23.102;2024-02-15T09:05:40;96402.06;;;5.27;63.85
71621;BME280;59471;42.254;23.102;2024-02-15T09:08:06;96392.09;;;5.32;64.38
71621;BME280;59471;42.254;23.102;2024-02-15T09:10:32;96390.31;;;5.23;65.34
71621;BME280;59471;42.254;23.102;2024-02-15T09:12:58;96388.19;;;5.48;64.94
71621;BME280;59471;42.254;23.102;2024-02-15T09:15:23;96385.78;;;5.75;64.76
71621;BME280;59471;42.254;23.102;2024-02-15T09:17:50;96380.75;;;5.84;63.01
71621;BME280;59471;42.254;23.102;2024-02-15T09:20:16;96387.97;;;5.70;64.38
71621;BME280;59471;42.254;23.102;2024-02-15T09:22:51;96383.34;;;5.74;63.92
71621;BME280;59471;42.254;23.102;2024-02-15T09:25:17;96378.41;;;5.80;63.94
71621;BME280;59471;42.254;23.102;2024-02-15T09:27:44;96371.56;;;5.79;63.67
71621;BME280;59471;42.254;23.102;2024-02-15T09:30:11;96379.91;;;5.73;62.98
71621;BME280;59471;42.254;23.102;2024-02-15T09:32:40;96380.47;;;5.77;63.55
71621;BME280;59471;42.254;23.102;2024-02-15T09:35:07;96370.75;;;5.89;63.16
71621;BME280;59471;42.254;23.102;2024-02-15T09:37:38;96374.78;;;6.12;63.44
71621;BME280;59471;42.254;23.102;2024-02-15T09:40:09;96370.94;;;6.16;62.10
71621;BME280;59471;42.254;23.102;2024-02-15T09:42:38;96358.09;;;6.34;62.82
71621;BME280;59471;42.254;23.102;2024-02-15T09:45:05;96363.94;;;6.46;61.97
71621;BME280;59471;42.254;23.102;2024-02-15T09:47:34;96362.06;;;6.29;61.90
71621;BME280;59471;42.254;23.102;2024-02-15T09:50:06;96343.97;;;6.37;62.67
71621;BME280;59471;42.254;23.102;2024-02-15T09:52:34;96351.63;;;6.38;62.53
71621;BME280;59471;42.254;23.102;2024-02-15T09:55:03;96337.38;;;6.52;62.30
71621;BME280;59471;42.254;23.102;2024-02-15T09:57:29;96323.69;;;6.50;62.29
71621;BME280;59471;42.254;23.102;2024-02-15T09:59:58;96320.53;;;6.56;61.84
71621;BME280;59471;42.254;23.102;2024-02-15T10:02:26;96328.44;;;6.64;62.76
71621;BME280;59471;42.254;23.102;2024-02-15T10:04:53;96318.28;;;6.71;62.52
71621;BME280;59471;42.254;23.102;2024-02-15T10:07:24;96311.53;;;6.88;61.42
71621;BME280;59471;42.254;23.102;2024-02-15T10:09:52;96319.50;;;6.77;60.57
71621;BME280;59471;42.254;23.102;2024-02-15T10:12:18;96307.44;;;6.85;60.84
71621;BME280;59471;42.254;23.102;2024-02-15T10:14:50;96297.81;;;6.86;60.50
71621;BME280;59471;42.254;23.102;2024-02-15T10:17:18;96300.16;;;7.16;61.43
71621;BME280;59471;42.254;23.102;2024-02-15T10:19:45;96300.59;;;7.39;59.87
71621;BME280;59471;42.254;23.102;2024-02-15T10:22:27;96297.16;;;7.39;61.53
71621;BME280;59471;42.254;23.102;2024-02-15T10:25:10;96293.16;;;7.62;60.42
71621;BME280;59471;42.254;23.102;2024-02-15T10:27:36;96282.66;;;7.54;60.54
71621;BME280;59471;42.254;23.102;2024-02-15T10:32:44;96282.91;;;7.61;59.09
71621;BME280;59471;42.254;23.102;2024-02-15T10:35:18;96272.53;;;7.87;59.12
71621;BME280;59471;42.254;23.102;2024-02-15T10:37:44;96264.47;;;7.27;59.41
71621;BME280;59471;42.254;23.102;2024-02-15T10:40:11;96266.50;;;7.69;60.25
71621;BME280;59471;42.254;23.102;2024-02-15T10:42:40;96269.03;;;7.78;59.85
71621;BME280;59471;42.254;23.102;2024-02-15T10:45:08;96256.47;;;7.74;59.08
71621;BME280;59471;42.254;23.102;2024-02-15T10:47:37;96262.03;;;7.61;59.38
71621;BME280;59471;42.254;23.102;2024-02-15T10:50:06;96260.63;;;7.66;59.42
71621;BME280;59471;42.254;23.102;2024-02-15T10:52:35;96248.56;;;7.65;59.82
71621;BME280;59471;42.254;23.102;2024-02-15T10:55:05;96251.59;;;7.97;60.17
71621;BME280;59471;42.254;23.102;2024-02-15T10:57:45;96249.34;;;8.02;59.29
71621;BME280;59471;42.254;23.102;2024-02-15T11:00:12;96242.16;;;7.78;59.37
71621;BME280;59471;42.254;23.102;2024-02-15T11:03:16;96254.19;;;8.15;59.72
71621;BME280;59471;42.254;23.102;2024-02-15T11:05:43;96240.25;;;8.32;60.12
71621;BME280;59471;42.254;23.102;2024-02-15T11:08:09;96249.72;;;8.51;58.71
71621;BME280;59471;42.254;23.102;2024-02-15T11:10:36;96239.38;;;8.41;59.28
71621;BME280;59471;42.254;23.102;2024-02-15T11:13:02;96228.63;;;8.44;58.85
71621;BME280;59471;42.254;23.102;2024-02-15T11:18:00;96224.28;;;8.35;58.48
71621;BME280;59471;42.254;23.102;2024-02-15T11:23:02;96224.91;;;8.29;57.95
71621;BME280;59471;42.254;23.102;2024-02-15T11:25:36;96226.78;;;8.63;58.12
71621;BME280;59471;42.254;23.102;2024-02-15T11:30:49;96230.88;;;8.65;57.48
71621;BME280;59471;42.254;23.102;2024-02-15T11:33:32;96211.91;;;8.97;57.79
71621;BME280;59471;42.254;23.102;2024-02-15T11:36:05;96216.53;;;9.12;56.89
71621;BME280;59471;42.254;23.102;2024-02-15T11:38:32;96212.22;;;8.60;57.03
71621;BME280;59471;42.254;23.102;2024-02-15T11:41:05;96214.88;;;9.11;56.88
71621;BME280;59471;42.254;23.102;2024-02-15T11:46:18;96208.03;;;9.10;56.67
71621;BME280;59471;42.254;23.102;2024-02-15T11:48:48;96225.09;;;8.88;55.80
71621;BME280;59471;42.254;23.102;2024-02-15T11:51:31;96204.44;;;9.11;56.87
71621;BME280;59471;42.254;23.102;2024-02-15T11:54:07;96227.00;;;9.12;55.55
71621;BME280;59471;42.254;23.102;2024-02-15T11:56:50;96216.16;;;8.98;56.60
71621;BME280;59471;42.254;23.102;2024-02-15T11:59:19;96211.94;;;9.05;56.30
71621;BME280;59471;42.254;23.102;2024-02-15T12:01:57;96206.91;;;9.12;56.50
71621;BME280;59471;42.254;23.102;2024-02-15T12:04:42;96211.66;;;9.25;56.83
71621;BME280;59471;42.254;23.102;2024-02-15T12:07:28;96191.75;;;9.24;55.38
71621;BME280;59471;42.254;23.102;2024-02-15T12:10:19;96189.13;;;9.24;55.61
71621;BME280;59471;42.254;23.102;2024-02-15T12:13:03;96221.75;;;9.12;55.03
71621;BME280;59471;42.254;23.102;2024-02-15T12:15:58;96212.34;;;9.27;55.19
71621;BME280;59471;42.254;23.102;2024-02-15T12:18:44;96184.25;;;9.37;55.56
71621;BME280;59471;42.254;23.102;2024-02-15T12:21:14;96189.31;;;9.47;55.48
71621;BME280;59471;42.254;23.102;2024-02-15T12:23:42;96199.72;;;9.14;55.32
71621;BME280;59471;42.254;23.102;2024-02-15T12:26:08;96203.50;;;9.36;55.26
71621;BME280;59471;42.254;23.102;2024-02-15T12:28:34;96189.81;;;9.67;55.59
71621;BME280;59471;42.254;23.102;2024-02-15T12:31:01;96185.88;;;9.55;54.79
71621;BME280;59471;42.254;23.102;2024-02-15T12:33:27;96187.84;;;9.44;54.83
71621;BME280;59471;42.254;23.102;2024-02-15T12:36:06;96191.63;;;9.83;55.77
71621;BME280;59471;42.254;23.102;2024-02-15T12:38:33;96187.66;;;10.19;55.24
71621;BME280;59471;42.254;23.102;2024-02-15T12:41:20;96182.94;;;9.98;54.26
71621;BME280;59471;42.254;23.102;2024-02-15T12:43:46;96187.16;;;10.24;54.93
71621;BME280;59471;42.254;23.102;2024-02-15T12:46:12;96190.78;;;10.07;53.97
71621;BME280;59471;42.254;23.102;2024-02-15T12:48:43;96185.25;;;9.93;54.61
71621;BME280;59471;42.254;23.102;2024-02-15T12:51:15;96182.31;;;9.96;53.89
71621;BME280;59471;42.254;23.102;2024-02-15T12:53:41;96181.31;;;9.73;53.71
71621;BME280;59471;42.254;23.102;2024-02-15T12:56:07;96177.38;;;10.02;53.84
71621;BME280;59471;42.254;23.102;2024-02-15T12:58:34;96178.34;;;10.17;54.65
71621;BME280;59471;42.254;23.102;2024-02-15T13:01:00;96172.78;;;10.12;54.15
71621;BME280;59471;42.254;23.102;2024-02-15T13:03:27;96180.63;;;10.20;53.41
71621;BME280;59471;42.254;23.102;2024-02-15T13:05:52;96185.22;;;10.02;53.96
71621;BME280;59471;42.254;23.102;2024-02-15T13:08:18;96173.09;;;10.25;53.39
71621;BME280;59471;42.254;23.102;2024-02-15T13:10:45;96177.03;;;10.29;52.56
71621;BME280;59471;42.254;23.102;2024-02-15T13:13:12;96179.22;;;9.85;53.36
71621;BME280;59471;42.254;23.102;2024-02-15T13:15:39;96201.94;;;9.84;53.53
71621;BME280;59471;42.254;23.102;2024-02-15T13:18:05;96170.22;;;9.79;53.38
71621;BME280;59471;42.254;23.102;2024-02-15T13:20:31;96176.06;;;10.22;53.90
71621;BME280;59471;42.254;23.102;2024-02-15T13:25:33;96188.28;;;10.54;52.42